createdAt,value
2017-11-13T00:00:58.578Z,1002.77
2017-11-13T00:01:58.566Z,1002.77
2017-11-13T00:02:58.558Z,1002.78
2017-11-13T00:03:58.535Z,1002.82
2017-11-13T00:04:58.536Z,1002.82
2017-11-13T00:05:58.522Z,1002.86
2017-11-13T00:06:58.509Z,1002.84
2017-11-13T00:07:58.493Z,1002.86
2017-11-13T00:09:01.304Z,1002.82
2017-11-13T00:09:58.479Z,1002.86
2017-11-13T00:10:58.459Z,1002.91
2017-11-13T00:11:58.442Z,1002.91
2017-11-13T00:12:59.306Z,1002.92
2017-11-13T00:13:58.437Z,1002.97
2017-11-13T00:14:58.427Z,1002.97
2017-11-13T00:15:58.409Z,1003.00
2017-11-13T00:16:58.393Z,1003.02
2017-11-13T00:17:58.392Z,1003.03
2017-11-13T00:18:58.383Z,1003.06
2017-11-13T00:19:58.367Z,1003.06
2017-11-13T00:20:58.356Z,1003.10
2017-11-13T00:21:58.340Z,1003.07
2017-11-13T00:22:58.329Z,1003.06
2017-11-13T00:23:58.332Z,1003.10
2017-11-13T00:24:58.312Z,1003.08
2017-11-13T00:25:58.309Z,1003.10
2017-11-13T00:26:58.284Z,1003.11
2017-11-13T00:27:58.274Z,1003.09
2017-11-13T00:28:58.262Z,1003.14
2017-11-13T00:29:58.820Z,1003.15
2017-11-13T00:30:58.254Z,1003.17
2017-11-13T00:31:58.241Z,1003.15
2017-11-13T00:32:58.215Z,1003.16
2017-11-13T00:33:58.215Z,1003.13
2017-11-13T00:34:58.199Z,1003.16
2017-11-13T00:35:58.186Z,1003.15
2017-11-13T00:36:58.175Z,1003.18
2017-11-13T00:37:58.166Z,1003.20
2017-11-13T00:38:58.150Z,1003.23
2017-11-13T00:39:58.139Z,1003.26
2017-11-13T00:40:58.131Z,1003.35
2017-11-13T00:41:58.128Z,1003.31
2017-11-13T00:42:58.120Z,1003.28
2017-11-13T00:43:58.103Z,1003.36
2017-11-13T00:44:58.114Z,1003.35
2017-11-13T00:45:58.079Z,1003.32
2017-11-13T00:46:58.076Z,1003.39
2017-11-13T00:47:58.061Z,1003.36
2017-11-13T00:48:58.056Z,1003.36
2017-11-13T00:49:58.051Z,1003.39
2017-11-13T00:50:58.031Z,1003.40
2017-11-13T00:51:58.027Z,1003.41
2017-11-13T00:52:58.002Z,1003.41
2017-11-13T00:53:58.006Z,1003.41
2017-11-13T00:54:57.984Z,1003.48
2017-11-13T00:55:57.977Z,1003.47
2017-11-13T00:56:57.954Z,1003.45
2017-11-13T00:57:57.948Z,1003.47
2017-11-13T00:58:57.946Z,1003.52
2017-11-13T00:59:57.922Z,1003.47
2017-11-13T01:00:57.913Z,1003.48
2017-11-13T01:01:57.910Z,1003.41
2017-11-13T01:02:57.889Z,1003.50
2017-11-13T01:03:57.883Z,1003.50
2017-11-13T01:04:57.873Z,1003.52
2017-11-13T01:05:57.861Z,1003.53
2017-11-13T01:06:57.854Z,1003.52
2017-11-13T01:07:57.841Z,1003.58
2017-11-13T01:08:57.846Z,1003.61
2017-11-13T01:09:57.822Z,1003.60
2017-11-13T01:10:57.808Z,1003.62
2017-11-13T01:11:57.818Z,1003.64
2017-11-13T01:12:57.780Z,1003.65
2017-11-13T01:13:57.781Z,1003.60
2017-11-13T01:14:57.759Z,1003.64
2017-11-13T01:15:57.766Z,1003.66
2017-11-13T01:16:57.741Z,1003.69
2017-11-13T01:17:57.728Z,1003.66
2017-11-13T01:18:57.724Z,1003.70
2017-11-13T01:19:57.709Z,1003.70
2017-11-13T01:20:57.692Z,1003.75
2017-11-13T01:21:57.678Z,1003.76
2017-11-13T01:22:57.666Z,1003.79
2017-11-13T01:23:57.665Z,1003.79
2017-11-13T01:24:57.653Z,1003.88
2017-11-13T01:25:57.642Z,1003.87
2017-11-13T01:26:57.637Z,1003.87
2017-11-13T01:27:57.627Z,1003.87
2017-11-13T01:28:57.614Z,1003.92
2017-11-13T01:29:57.598Z,1003.91
2017-11-13T01:30:57.582Z,1003.92
2017-11-13T01:31:57.570Z,1003.92
2017-11-13T01:32:57.568Z,1003.93
2017-11-13T01:33:58.347Z,1003.92
2017-11-13T01:34:57.563Z,1003.94
2017-11-13T01:35:57.545Z,1003.91
2017-11-13T01:36:57.520Z,1003.98
2017-11-13T01:37:57.517Z,1003.98
2017-11-13T01:38:09.503Z,1003.99
2017-11-13T01:39:57.492Z,1004.01
2017-11-13T01:40:57.479Z,1004.00
2017-11-13T01:41:57.467Z,1004.01
2017-11-13T01:42:57.457Z,1004.00
2017-11-13T01:43:58.338Z,1004.00
2017-11-13T01:44:57.464Z,1004.01
2017-11-13T01:46:00.345Z,1004.02
2017-11-13T01:46:57.416Z,1004.10
2017-11-13T01:47:57.397Z,1004.05
2017-11-13T01:48:57.393Z,1004.09
2017-11-13T01:49:57.392Z,1004.16
2017-11-13T01:50:57.376Z,1004.15
2017-11-13T01:51:57.383Z,1004.18
2017-11-13T01:52:57.347Z,1004.20
2017-11-13T01:53:57.336Z,1004.22
2017-11-13T01:54:57.326Z,1004.21
2017-11-13T01:55:57.317Z,1004.21
2017-11-13T01:56:57.317Z,1004.23
2017-11-13T01:57:57.302Z,1004.25
2017-11-13T01:58:57.282Z,1004.27
2017-11-13T01:59:57.283Z,1004.33
2017-11-13T02:00:57.850Z,1004.35
2017-11-13T02:01:57.250Z,1004.35
2017-11-13T02:02:57.234Z,1004.36
2017-11-13T02:03:57.235Z,1004.34
2017-11-13T02:04:57.207Z,1004.36
2017-11-13T02:05:57.192Z,1004.38
2017-11-13T02:06:57.201Z,1004.31
2017-11-13T02:07:57.174Z,1004.33
2017-11-13T02:08:57.172Z,1004.37
2017-11-13T02:09:57.847Z,1004.37
2017-11-13T02:10:57.156Z,1004.43
2017-11-13T02:11:57.146Z,1004.42
2017-11-13T02:12:57.144Z,1004.49
2017-11-13T02:13:57.121Z,1004.50
2017-11-13T02:14:57.104Z,1004.55
2017-11-13T02:15:57.097Z,1004.55
2017-11-13T02:16:59.856Z,1004.52
2017-11-13T02:17:57.076Z,1004.51
2017-11-13T02:18:57.070Z,1004.53
2017-11-13T02:19:57.055Z,1004.53
2017-11-13T02:20:57.051Z,1004.65
2017-11-13T02:21:57.025Z,1004.64
2017-11-13T02:22:57.020Z,1004.70
2017-11-13T02:23:57.018Z,1004.66
2017-11-13T02:24:56.997Z,1004.70
2017-11-13T02:25:56.979Z,1004.74
2017-11-13T02:26:56.971Z,1004.73
2017-11-13T02:27:56.980Z,1004.72
2017-11-13T02:28:57.857Z,1004.75
2017-11-13T02:29:56.934Z,1004.76
2017-11-13T02:30:56.923Z,1004.74
2017-11-13T02:31:56.917Z,1004.78
2017-11-13T02:32:56.906Z,1004.80
2017-11-13T02:33:56.897Z,1004.82
2017-11-13T02:34:56.911Z,1004.81
2017-11-13T02:35:56.876Z,1004.80
2017-11-13T02:36:56.869Z,1004.84
2017-11-13T02:37:56.854Z,1004.87
2017-11-13T02:38:56.851Z,1004.91
2017-11-13T02:39:56.841Z,1004.93
2017-11-13T02:40:56.824Z,1004.98
2017-11-13T02:41:56.801Z,1004.96
2017-11-13T02:42:56.802Z,1004.91
2017-11-13T02:43:56.780Z,1004.92
2017-11-13T02:44:56.771Z,1004.92
2017-11-13T02:45:56.774Z,1004.94
2017-11-13T02:46:56.759Z,1004.93
2017-11-13T02:47:56.749Z,1004.94
2017-11-13T02:48:56.729Z,1005.02
2017-11-13T02:49:56.724Z,1005.00
2017-11-13T02:50:56.714Z,1005.03
2017-11-13T02:51:56.702Z,1005.02
2017-11-13T02:52:56.702Z,1005.03
2017-11-13T02:53:56.689Z,1005.04
2017-11-13T02:54:56.679Z,1005.03
2017-11-13T02:55:56.655Z,1005.05
2017-11-13T02:56:56.646Z,1005.09
2017-11-13T02:57:56.632Z,1005.13
2017-11-13T02:58:56.620Z,1005.16
2017-11-13T02:59:56.612Z,1005.15
2017-11-13T03:00:56.602Z,1005.17
2017-11-13T03:01:57.370Z,1005.20
2017-11-13T03:02:56.588Z,1005.21
2017-11-13T03:03:56.574Z,1005.21
2017-11-13T03:04:56.586Z,1005.20
2017-11-13T03:05:56.548Z,1005.16
2017-11-13T03:06:56.536Z,1005.18
2017-11-13T03:07:56.530Z,1005.15
2017-11-13T03:08:56.533Z,1005.19
2017-11-13T03:09:56.505Z,1005.16
2017-11-13T03:10:56.494Z,1005.14
2017-11-13T03:11:56.494Z,1005.19
2017-11-13T03:12:56.475Z,1005.22
2017-11-13T03:13:57.374Z,1005.21
2017-11-13T03:14:56.456Z,1005.23
2017-11-13T03:15:56.430Z,1005.24
2017-11-13T03:16:56.418Z,1005.29
2017-11-13T03:17:56.418Z,1005.28
2017-11-13T03:18:56.409Z,1005.32
2017-11-13T03:19:56.406Z,1005.32
2017-11-13T03:20:58.369Z,1005.30
2017-11-13T03:21:56.365Z,1005.27
2017-11-13T03:22:56.374Z,1005.26
2017-11-13T03:23:56.358Z,1005.28
2017-11-13T03:24:56.341Z,1005.29
2017-11-13T03:25:56.344Z,1005.34
2017-11-13T03:26:56.318Z,1005.35
2017-11-13T03:27:56.311Z,1005.39
2017-11-13T03:28:56.290Z,1005.41
2017-11-13T03:29:56.283Z,1005.45
2017-11-13T03:30:56.284Z,1005.49
2017-11-13T03:32:02.888Z,1005.50
2017-11-13T03:32:56.251Z,1005.50
2017-11-13T03:33:56.240Z,1005.52
2017-11-13T03:34:56.230Z,1005.56
2017-11-13T03:35:56.223Z,1005.60
2017-11-13T03:36:56.211Z,1005.56
2017-11-13T03:37:56.205Z,1005.61
2017-11-13T03:38:56.190Z,1005.59
2017-11-13T03:39:56.175Z,1005.63
2017-11-13T03:40:56.165Z,1005.64
2017-11-13T03:41:56.147Z,1005.65
2017-11-13T03:42:56.890Z,1005.64
2017-11-13T03:43:56.133Z,1005.64
2017-11-13T03:44:56.113Z,1005.66
2017-11-13T03:45:56.879Z,1005.68
2017-11-13T03:46:56.101Z,1005.69
2017-11-13T03:47:56.091Z,1005.69
2017-11-13T03:48:56.085Z,1005.72
2017-11-13T03:49:56.083Z,1005.75
2017-11-13T03:50:56.057Z,1005.72
2017-11-13T03:51:56.059Z,1005.75
2017-11-13T03:52:56.032Z,1005.73
2017-11-13T03:53:56.038Z,1005.82
2017-11-13T03:54:56.009Z,1005.78
2017-11-13T03:55:55.996Z,1005.75
2017-11-13T03:56:55.988Z,1005.78
2017-11-13T03:57:55.973Z,1005.83
2017-11-13T03:58:55.970Z,1005.87
2017-11-13T03:59:55.961Z,1005.85
2017-11-13T04:00:55.947Z,1005.84
2017-11-13T04:01:55.934Z,1005.89
2017-11-13T04:02:55.923Z,1005.87
2017-11-13T04:03:55.919Z,1006.00
2017-11-13T04:04:56.920Z,1006.03
2017-11-13T04:05:55.884Z,1006.04
2017-11-13T04:06:55.868Z,1006.08
2017-11-13T04:07:55.863Z,1006.09
2017-11-13T04:08:55.869Z,1006.03
2017-11-13T04:09:55.865Z,1006.02
2017-11-13T04:10:55.829Z,1006.04
2017-11-13T04:11:55.829Z,1006.01
2017-11-13T04:12:55.803Z,1006.05
2017-11-13T04:13:55.800Z,1006.03
2017-11-13T04:14:55.797Z,1006.09
2017-11-13T04:15:55.813Z,1006.12
2017-11-13T04:16:55.781Z,1006.11
2017-11-13T04:17:55.764Z,1006.19
2017-11-13T04:18:55.743Z,1006.15
2017-11-13T04:19:55.742Z,1006.20
2017-11-13T04:20:55.721Z,1006.17
2017-11-13T04:21:56.403Z,1006.14
2017-11-13T04:22:55.703Z,1006.14
2017-11-13T04:23:55.697Z,1006.19
2017-11-13T04:24:55.682Z,1006.17
2017-11-13T04:25:55.672Z,1006.24
2017-11-13T04:26:55.669Z,1006.33
2017-11-13T04:27:56.399Z,1006.31
2017-11-13T04:28:55.630Z,1006.34
2017-11-13T04:29:55.630Z,1006.36
2017-11-13T04:30:55.624Z,1006.35
2017-11-13T04:31:55.606Z,1006.39
2017-11-13T04:32:55.594Z,1006.39
2017-11-13T04:33:55.597Z,1006.41
2017-11-13T04:34:55.576Z,1006.45
2017-11-13T04:35:55.564Z,1006.47
2017-11-13T04:36:55.548Z,1006.44
2017-11-13T04:37:55.546Z,1006.42
2017-11-13T04:38:55.525Z,1006.45
2017-11-13T04:39:55.523Z,1006.52
2017-11-13T04:40:55.506Z,1006.45
2017-11-13T04:41:55.490Z,1006.52
2017-11-13T04:42:55.483Z,1006.53
2017-11-13T04:43:55.482Z,1006.55
2017-11-13T04:44:55.464Z,1006.60
2017-11-13T04:45:55.451Z,1006.57
2017-11-13T04:46:55.436Z,1006.61
2017-11-13T04:47:55.455Z,1006.59
2017-11-13T04:48:55.421Z,1006.55
2017-11-13T04:49:55.404Z,1006.58
2017-11-13T04:50:55.395Z,1006.63
2017-11-13T04:51:55.379Z,1006.66
2017-11-13T04:52:55.369Z,1006.67
2017-11-13T04:53:55.369Z,1006.68
2017-11-13T04:54:55.353Z,1006.72
2017-11-13T04:55:55.347Z,1006.71
2017-11-13T04:56:55.328Z,1006.76
2017-11-13T04:57:55.308Z,1006.79
2017-11-13T04:58:55.317Z,1006.88
2017-11-13T04:59:55.295Z,1006.88
2017-11-13T05:00:55.290Z,1006.85
2017-11-13T05:01:55.281Z,1006.87
2017-11-13T05:02:55.275Z,1006.90
2017-11-13T05:03:55.263Z,1006.88
2017-11-13T05:04:55.245Z,1006.92
2017-11-13T05:05:55.228Z,1006.92
2017-11-13T05:06:55.215Z,1006.99
2017-11-13T05:07:55.210Z,1006.99
2017-11-13T05:08:55.194Z,1006.96
2017-11-13T05:09:55.186Z,1007.00
2017-11-13T05:10:55.176Z,1006.96
2017-11-13T05:11:55.167Z,1006.97
2017-11-13T05:12:55.166Z,1006.95
2017-11-13T05:13:55.141Z,1006.98
2017-11-13T05:14:55.133Z,1006.98
2017-11-13T05:15:55.124Z,1007.01
2017-11-13T05:16:55.109Z,1007.04
2017-11-13T05:17:55.110Z,1007.05
2017-11-13T05:18:55.078Z,1007.13
2017-11-13T05:19:55.081Z,1007.15
2017-11-13T05:20:55.064Z,1007.16
2017-11-13T05:21:55.055Z,1007.13
2017-11-13T05:22:55.041Z,1007.14
2017-11-13T05:23:55.085Z,1007.08
2017-11-13T05:24:55.930Z,1007.09
2017-11-13T05:25:55.008Z,1007.03
2017-11-13T05:26:54.993Z,1007.06
2017-11-13T05:28:01.936Z,1007.09
2017-11-13T05:28:54.977Z,1007.15
2017-11-13T05:29:54.957Z,1007.12
2017-11-13T05:30:54.959Z,1007.05
2017-11-13T05:31:54.943Z,1007.08
2017-11-13T05:32:54.929Z,1007.10
2017-11-13T05:33:54.915Z,1007.11
2017-11-13T05:34:54.909Z,1007.14
2017-11-13T05:35:54.894Z,1007.13
2017-11-13T05:36:54.895Z,1007.17
2017-11-13T05:37:54.873Z,1007.20
2017-11-13T05:38:55.422Z,1007.17
2017-11-13T05:39:54.850Z,1007.18
2017-11-13T05:40:54.842Z,1007.21
2017-11-13T05:41:54.829Z,1007.22
2017-11-13T05:42:54.814Z,1007.21
2017-11-13T05:43:54.818Z,1007.23
2017-11-13T05:44:54.799Z,1007.25
2017-11-13T05:45:54.810Z,1007.27
2017-11-13T05:46:55.433Z,1007.23
2017-11-13T05:47:54.769Z,1007.24
2017-11-13T05:48:54.759Z,1007.26
2017-11-13T05:49:54.739Z,1007.26
2017-11-13T05:50:54.731Z,1007.22
2017-11-13T05:51:54.713Z,1007.20
2017-11-13T05:52:57.426Z,1007.26
2017-11-13T05:53:54.711Z,1007.27
2017-11-13T05:54:54.693Z,1007.30
2017-11-13T05:55:54.678Z,1007.27
2017-11-13T05:56:55.428Z,1007.31
2017-11-13T05:57:55.429Z,1007.30
2017-11-13T05:58:54.643Z,1007.35
2017-11-13T05:59:54.631Z,1007.40
2017-11-13T06:00:54.617Z,1007.45
2017-11-13T06:01:54.622Z,1007.45
2017-11-13T06:02:55.445Z,1007.44
2017-11-13T06:03:55.441Z,1007.45
2017-11-13T06:04:54.575Z,1007.47
2017-11-13T06:05:54.564Z,1007.49
2017-11-13T06:06:54.551Z,1007.51
2017-11-13T06:07:54.560Z,1007.51
2017-11-13T06:08:54.535Z,1007.54
2017-11-13T06:09:57.437Z,1007.59
2017-11-13T06:10:54.511Z,1007.62
2017-11-13T06:11:54.498Z,1007.62
2017-11-13T06:12:54.489Z,1007.67
2017-11-13T06:13:57.437Z,1007.67
2017-11-13T06:14:55.429Z,1007.71
2017-11-13T06:15:54.448Z,1007.74
2017-11-13T06:16:54.440Z,1007.73
2017-11-13T06:17:54.432Z,1007.74
2017-11-13T06:18:54.424Z,1007.76
2017-11-13T06:19:54.409Z,1007.78
2017-11-13T06:20:54.405Z,1007.80
2017-11-13T06:21:54.386Z,1007.80
2017-11-13T06:22:54.369Z,1007.86
2017-11-13T06:23:54.370Z,1007.86
2017-11-13T06:24:54.351Z,1007.88
2017-11-13T06:25:54.351Z,1007.88
2017-11-13T06:26:54.328Z,1007.92
2017-11-13T06:27:54.330Z,1007.98
2017-11-13T06:28:54.301Z,1007.98
2017-11-13T06:29:06.306Z,1007.99
2017-11-13T06:30:54.288Z,1008.02
2017-11-13T06:31:54.392Z,1008.12
2017-11-13T06:32:54.264Z,1008.09
2017-11-13T06:33:54.255Z,1008.11
2017-11-13T06:34:54.239Z,1008.11
2017-11-13T06:35:54.235Z,1008.11
2017-11-13T06:36:54.214Z,1008.14
2017-11-13T06:37:54.944Z,1008.12
2017-11-13T06:38:54.951Z,1008.13
2017-11-13T06:39:54.186Z,1008.12
2017-11-13T06:40:54.182Z,1008.14
2017-11-13T06:41:54.156Z,1008.13
2017-11-13T06:42:54.279Z,1008.18
2017-11-13T06:43:54.143Z,1008.19
2017-11-13T06:44:54.133Z,1008.20
2017-11-13T06:45:54.123Z,1008.21
2017-11-13T06:46:54.139Z,1008.22
2017-11-13T06:47:54.100Z,1008.20
2017-11-13T06:48:54.107Z,1008.23
2017-11-13T06:49:54.080Z,1008.29
2017-11-13T06:50:54.064Z,1008.24
2017-11-13T06:51:54.941Z,1008.28
2017-11-13T06:52:54.038Z,1008.30
2017-11-13T06:53:54.029Z,1008.32
2017-11-13T06:54:54.045Z,1008.31
2017-11-13T06:55:54.014Z,1008.34
2017-11-13T06:56:54.000Z,1008.34
2017-11-13T06:57:53.990Z,1008.32
2017-11-13T06:58:53.980Z,1008.33
2017-11-13T06:59:53.973Z,1008.38
2017-11-13T07:00:53.957Z,1008.40
2017-11-13T07:01:53.950Z,1008.47
2017-11-13T07:02:53.934Z,1008.49
2017-11-13T07:03:53.921Z,1008.50
2017-11-13T07:04:54.450Z,1008.56
2017-11-13T07:05:53.927Z,1008.56
2017-11-13T07:06:53.889Z,1008.56
2017-11-13T07:07:53.882Z,1008.60
2017-11-13T07:08:53.866Z,1008.61
2017-11-13T07:09:53.855Z,1008.63
2017-11-13T07:10:53.853Z,1008.57
2017-11-13T07:11:53.858Z,1008.68
2017-11-13T07:12:53.843Z,1008.69
2017-11-13T07:13:53.820Z,1008.70
2017-11-13T07:14:53.805Z,1008.68
2017-11-13T07:15:53.812Z,1008.69
2017-11-13T07:16:53.802Z,1008.73
2017-11-13T07:17:54.459Z,1008.73
2017-11-13T07:18:53.764Z,1008.77
2017-11-13T07:19:53.755Z,1008.77
2017-11-13T07:20:53.749Z,1008.81
2017-11-13T07:21:53.727Z,1008.85
2017-11-13T07:22:54.458Z,1008.84
2017-11-13T07:23:53.716Z,1008.81
2017-11-13T07:24:53.695Z,1008.81
2017-11-13T07:25:53.685Z,1008.77
2017-11-13T07:26:53.677Z,1008.82
2017-11-13T07:27:53.679Z,1008.82
2017-11-13T07:28:53.656Z,1008.81
2017-11-13T07:29:53.648Z,1008.76
2017-11-13T07:30:53.634Z,1008.82
2017-11-13T07:31:53.630Z,1008.84
2017-11-13T07:32:53.615Z,1008.91
2017-11-13T07:33:53.603Z,1008.94
2017-11-13T07:34:53.599Z,1008.91
2017-11-13T07:35:53.590Z,1008.93
2017-11-13T07:36:53.567Z,1008.95
2017-11-13T07:37:54.462Z,1008.98
2017-11-13T07:38:53.546Z,1008.98
2017-11-13T07:39:53.541Z,1009.00
2017-11-13T07:40:53.523Z,1009.04
2017-11-13T07:41:53.523Z,1009.00
2017-11-13T07:42:53.509Z,1009.07
2017-11-13T07:43:54.466Z,1009.05
2017-11-13T07:44:53.487Z,1009.05
2017-11-13T07:45:53.475Z,1009.02
2017-11-13T07:46:53.466Z,1009.05
2017-11-13T07:47:53.460Z,1009.05
2017-11-13T07:48:53.443Z,1009.08
2017-11-13T07:49:53.432Z,1009.13
2017-11-13T07:50:53.422Z,1009.14
2017-11-13T07:51:53.401Z,1009.12
2017-11-13T07:52:53.400Z,1009.10
2017-11-13T07:53:53.392Z,1009.06
2017-11-13T07:54:53.379Z,1009.11
2017-11-13T07:55:53.964Z,1009.08
2017-11-13T07:56:53.362Z,1009.09
2017-11-13T07:57:53.356Z,1009.14
2017-11-13T07:58:53.334Z,1009.17
2017-11-13T07:59:53.340Z,1009.19
2017-11-13T08:00:53.312Z,1009.15
2017-11-13T08:01:53.303Z,1009.19
2017-11-13T08:02:53.294Z,1009.17
2017-11-13T08:03:53.975Z,1009.23
2017-11-13T08:04:53.271Z,1009.27
2017-11-13T08:05:53.265Z,1009.26
2017-11-13T08:06:53.977Z,1009.28
2017-11-13T08:07:53.244Z,1009.28
2017-11-13T08:08:53.233Z,1009.31
2017-11-13T08:09:53.215Z,1009.29
2017-11-13T08:10:53.214Z,1009.29
2017-11-13T08:11:53.970Z,1009.31
2017-11-13T08:12:53.186Z,1009.28
2017-11-13T08:13:53.196Z,1009.28
2017-11-13T08:14:53.170Z,1009.33
2017-11-13T08:15:53.158Z,1009.39
2017-11-13T08:16:53.160Z,1009.39
2017-11-13T08:17:53.141Z,1009.42
2017-11-13T08:18:53.133Z,1009.39
2017-11-13T08:19:53.984Z,1009.39
2017-11-13T08:20:53.105Z,1009.45
2017-11-13T08:21:53.126Z,1009.48
2017-11-13T08:22:53.094Z,1009.47
2017-11-13T08:23:53.073Z,1009.46
2017-11-13T08:24:53.070Z,1009.44
2017-11-13T08:25:53.061Z,1009.45
2017-11-13T08:26:53.058Z,1009.47
2017-11-13T08:27:53.054Z,1009.47
2017-11-13T08:28:53.029Z,1009.53
2017-11-13T08:29:53.037Z,1009.51
2017-11-13T08:30:53.007Z,1009.52
2017-11-13T08:31:52.997Z,1009.56
2017-11-13T08:32:53.002Z,1009.57
2017-11-13T08:33:52.983Z,1009.58
2017-11-13T08:34:52.969Z,1009.64
2017-11-13T08:35:52.962Z,1009.56
2017-11-13T08:36:52.954Z,1009.65
2017-11-13T08:37:52.937Z,1009.71
2017-11-13T08:38:53.485Z,1009.66
2017-11-13T08:39:52.924Z,1009.69
2017-11-13T08:40:52.921Z,1009.74
2017-11-13T08:41:52.900Z,1009.72
2017-11-13T08:42:53.488Z,1009.71
2017-11-13T08:43:52.881Z,1009.74
2017-11-13T08:44:52.877Z,1009.79
2017-11-13T08:45:52.860Z,1009.79
2017-11-13T08:46:52.845Z,1009.82
2017-11-13T08:47:52.841Z,1009.85
2017-11-13T08:48:52.826Z,1009.81
2017-11-13T08:49:52.811Z,1009.89
2017-11-13T08:50:52.818Z,1009.89
2017-11-13T08:51:52.796Z,1009.88
2017-11-13T08:52:52.791Z,1009.89
2017-11-13T08:53:52.783Z,1009.97
2017-11-13T08:54:53.493Z,1009.98
2017-11-13T08:55:52.762Z,1009.98
2017-11-13T08:56:53.506Z,1010.03
2017-11-13T08:57:52.740Z,1009.98
2017-11-13T08:58:52.728Z,1010.03
2017-11-13T08:59:52.718Z,1010.02
2017-11-13T09:00:52.716Z,1010.03
2017-11-13T09:01:52.699Z,1010.04
2017-11-13T09:02:52.684Z,1010.00
2017-11-13T09:03:52.697Z,1010.02
2017-11-13T09:04:52.674Z,1010.07
2017-11-13T09:05:52.665Z,1010.09
2017-11-13T09:06:52.655Z,1010.16
2017-11-13T09:07:52.647Z,1010.16
2017-11-13T09:08:52.633Z,1010.15
2017-11-13T09:09:53.501Z,1010.13
2017-11-13T09:10:52.614Z,1010.14
2017-11-13T09:11:52.606Z,1010.15
2017-11-13T09:12:52.594Z,1010.17
2017-11-13T09:13:52.598Z,1010.15
2017-11-13T09:14:52.607Z,1010.19
2017-11-13T09:15:52.580Z,1010.21
2017-11-13T09:16:52.553Z,1010.27
2017-11-13T09:17:52.547Z,1010.31
2017-11-13T09:18:52.544Z,1010.32
2017-11-13T09:19:52.529Z,1010.36
2017-11-13T09:20:52.513Z,1010.38
2017-11-13T09:21:52.536Z,1010.38
2017-11-13T09:22:52.499Z,1010.40
2017-11-13T09:23:52.490Z,1010.42
2017-11-13T09:24:52.482Z,1010.50
2017-11-13T09:25:52.483Z,1010.55
2017-11-13T09:26:52.459Z,1010.54
2017-11-13T09:27:53.002Z,1010.57
2017-11-13T09:28:52.439Z,1010.57
2017-11-13T09:29:52.435Z,1010.55
2017-11-13T09:30:53.029Z,1010.56
2017-11-13T09:31:52.414Z,1010.61
2017-11-13T09:32:52.457Z,1010.61
2017-11-13T09:33:55.004Z,1010.66
2017-11-13T09:34:52.389Z,1010.68
2017-11-13T09:35:52.373Z,1010.67
2017-11-13T09:36:52.369Z,1010.70
2017-11-13T09:37:52.375Z,1010.70
2017-11-13T09:38:52.352Z,1010.65
2017-11-13T09:39:52.348Z,1010.65
2017-11-13T09:40:52.369Z,1010.63
2017-11-13T09:41:52.334Z,1010.66
2017-11-13T09:42:52.324Z,1010.66
2017-11-13T09:43:53.018Z,1010.66
2017-11-13T09:44:52.311Z,1010.67
2017-11-13T09:45:52.296Z,1010.67
2017-11-13T09:46:53.019Z,1010.74
2017-11-13T09:47:52.283Z,1010.76
2017-11-13T09:48:52.284Z,1010.77
2017-11-13T09:49:52.285Z,1010.74
2017-11-13T09:50:52.251Z,1010.76
2017-11-13T09:51:52.247Z,1010.71
2017-11-13T09:52:52.242Z,1010.78
2017-11-13T09:53:52.232Z,1010.78
2017-11-13T09:54:52.205Z,1010.78
2017-11-13T09:55:52.201Z,1010.84
2017-11-13T09:56:53.022Z,1010.78
2017-11-13T09:57:52.186Z,1010.80
2017-11-13T09:58:52.194Z,1010.81
2017-11-13T09:59:52.177Z,1010.84
2017-11-13T10:00:52.152Z,1010.82
2017-11-13T10:01:53.022Z,1010.81
2017-11-13T10:02:52.141Z,1010.83
2017-11-13T10:03:53.034Z,1010.81
2017-11-13T10:04:52.129Z,1010.80
2017-11-13T10:05:53.038Z,1010.83
2017-11-13T10:06:52.100Z,1010.86
2017-11-13T10:07:52.090Z,1010.84
2017-11-13T10:08:52.086Z,1010.77
2017-11-13T10:09:52.073Z,1010.81
2017-11-13T10:10:52.081Z,1010.77
2017-11-13T10:11:52.057Z,1010.77
2017-11-13T10:12:52.052Z,1010.74
2017-11-13T10:13:52.031Z,1010.82
2017-11-13T10:14:52.032Z,1010.79
2017-11-13T10:15:52.027Z,1010.81
2017-11-13T10:16:52.016Z,1010.82
2017-11-13T10:17:52.014Z,1010.84
2017-11-13T10:18:52.536Z,1010.84
2017-11-13T10:19:51.993Z,1010.85
2017-11-13T10:20:51.984Z,1010.90
2017-11-13T10:21:51.971Z,1010.88
2017-11-13T10:22:51.963Z,1010.88
2017-11-13T10:23:51.954Z,1010.90
2017-11-13T10:24:51.947Z,1010.93
2017-11-13T10:25:51.928Z,1010.91
2017-11-13T10:26:51.932Z,1010.95
2017-11-13T10:27:51.918Z,1010.93
2017-11-13T10:28:51.904Z,1010.91
2017-11-13T10:29:51.898Z,1010.98
2017-11-13T10:30:52.538Z,1010.94
2017-11-13T10:31:51.889Z,1010.95
2017-11-13T10:32:51.875Z,1010.96
2017-11-13T10:33:51.862Z,1010.90
2017-11-13T10:34:54.536Z,1010.91
2017-11-13T10:35:51.854Z,1010.92
2017-11-13T10:36:51.841Z,1010.93
2017-11-13T10:37:51.837Z,1010.96
2017-11-13T10:38:51.824Z,1010.96
2017-11-13T10:39:51.823Z,1010.99
2017-11-13T10:40:51.804Z,1010.97
2017-11-13T10:41:51.793Z,1010.97
2017-11-13T10:42:51.788Z,1010.99
2017-11-13T10:43:51.786Z,1010.98
2017-11-13T10:44:51.779Z,1010.99
2017-11-13T10:45:51.756Z,1010.98
2017-11-13T10:46:51.750Z,1011.04
2017-11-13T10:47:51.747Z,1011.05
2017-11-13T10:48:51.756Z,1011.07
2017-11-13T10:49:51.725Z,1011.00
2017-11-13T10:50:51.725Z,1011.07
2017-11-13T10:51:51.712Z,1011.06
2017-11-13T10:52:51.699Z,1011.01
2017-11-13T10:53:51.691Z,1010.97
2017-11-13T10:54:51.692Z,1010.97
2017-11-13T10:55:51.675Z,1010.98
2017-11-13T10:56:51.667Z,1010.98
2017-11-13T10:57:51.682Z,1010.98
2017-11-13T10:58:51.650Z,1010.94
2017-11-13T10:59:51.662Z,1010.97
2017-11-13T11:00:51.642Z,1010.95
2017-11-13T11:01:51.632Z,1010.92
2017-11-13T11:02:51.623Z,1010.93
2017-11-13T11:03:51.620Z,1010.94
2017-11-13T11:04:51.613Z,1010.92
2017-11-13T11:05:51.606Z,1010.89
2017-11-13T11:06:51.584Z,1010.89
2017-11-13T11:07:51.582Z,1010.95
2017-11-13T11:08:51.563Z,1010.94
2017-11-13T11:09:51.566Z,1010.95
2017-11-13T11:10:51.555Z,1010.93
2017-11-13T11:11:51.551Z,1010.93
2017-11-13T11:12:51.539Z,1010.98
2017-11-13T11:13:51.533Z,1010.90
2017-11-13T11:14:51.542Z,1010.96
2017-11-13T11:15:51.507Z,1010.95
2017-11-13T11:16:51.500Z,1010.89
2017-11-13T11:17:51.488Z,1010.91
2017-11-13T11:18:51.496Z,1010.89
2017-11-13T11:19:51.478Z,1010.96
2017-11-13T11:20:51.469Z,1010.99
2017-11-13T11:21:51.454Z,1010.92
2017-11-13T11:22:52.054Z,1010.95
2017-11-13T11:23:51.445Z,1010.96
2017-11-13T11:24:51.428Z,1010.97
2017-11-13T11:25:51.419Z,1010.98
2017-11-13T11:26:51.413Z,1010.94
2017-11-13T11:27:51.398Z,1010.93
2017-11-13T11:28:51.399Z,1010.95
2017-11-13T11:29:51.390Z,1010.96
2017-11-13T11:30:51.375Z,1010.99
2017-11-13T11:31:51.367Z,1010.99
2017-11-13T11:32:51.356Z,1010.99
2017-11-13T11:33:51.353Z,1010.98
2017-11-13T11:34:51.341Z,1011.04
2017-11-13T11:35:51.337Z,1011.05
2017-11-13T11:36:51.334Z,1011.07
2017-11-13T11:37:51.311Z,1011.08
2017-11-13T11:38:51.294Z,1011.08
2017-11-13T11:39:51.294Z,1011.09
2017-11-13T11:40:51.279Z,1011.10
2017-11-13T11:41:51.278Z,1011.09
2017-11-13T11:42:51.271Z,1011.14
2017-11-13T11:43:51.261Z,1011.20
2017-11-13T11:44:51.251Z,1011.14
2017-11-13T11:45:51.238Z,1011.18
2017-11-13T11:46:51.236Z,1011.15
2017-11-13T11:47:51.231Z,1011.16
2017-11-13T11:48:51.216Z,1011.21
2017-11-13T11:49:51.204Z,1011.20
2017-11-13T11:50:51.193Z,1011.20
2017-11-13T11:51:51.188Z,1011.19
2017-11-13T11:52:51.178Z,1011.19
2017-11-13T11:53:51.165Z,1011.19
2017-11-13T11:54:51.171Z,1011.24
2017-11-13T11:55:51.155Z,1011.28
2017-11-13T11:56:51.149Z,1011.31
2017-11-13T11:57:51.136Z,1011.30
2017-11-13T11:58:51.131Z,1011.38
2017-11-13T11:59:51.125Z,1011.32
2017-11-13T12:00:51.114Z,1011.31
2017-11-13T12:01:51.106Z,1011.35
2017-11-13T12:02:51.103Z,1011.33
2017-11-13T12:03:51.093Z,1011.29
2017-11-13T12:04:51.085Z,1011.29
2017-11-13T12:05:51.073Z,1011.26